createdAt,value
2022-08-03T00:00:30.977Z,100018.19
2022-08-03T00:02:58.401Z,100018.22
2022-08-03T00:05:25.676Z,100017.34
2022-08-03T00:07:53.062Z,100013.81
2022-08-03T00:10:20.605Z,100014.72
2022-08-03T00:12:47.997Z,100008.56
2022-08-03T00:15:16.952Z,100016.63
2022-08-03T00:17:53.358Z,100010.34
2022-08-03T00:20:22.187Z,100015.69
2022-08-03T00:22:50.526Z,100012.16
2022-08-03T00:25:19.146Z,100016.66
2022-08-03T00:27:47.770Z,100009.56
2022-08-03T00:30:16.906Z,100014.03
2022-08-03T00:32:45.380Z,100009.59
2022-08-03T00:35:25.132Z,100009.63
2022-08-03T00:38:00.538Z,100006.94
2022-08-03T00:40:28.845Z,99999.88
2022-08-03T00:43:00.993Z,100013.22
2022-08-03T00:45:39.290Z,99999.88
2022-08-03T00:48:29.753Z,100012.41
2022-08-03T00:50:57.774Z,100005.28
2022-08-03T00:53:25.657Z,100004.44
2022-08-03T00:55:53.085Z,100007.09
2022-08-03T00:58:20.534Z,99998.22
2022-08-03T01:00:48.046Z,100001.84
2022-08-03T01:03:15.397Z,99994.72
2022-08-03T01:06:25.500Z,99995.63
2022-08-03T01:09:30.440Z,99994.72
2022-08-03T01:12:35.387Z,99989.38
2022-08-03T01:15:17.724Z,99995.63
2022-08-03T01:18:00.372Z,99985.88
2022-08-03T01:20:34.488Z,99992.97
2022-08-03T01:23:59.757Z,99992.97
2022-08-03T01:27:09.557Z,99986.72
2022-08-03T01:30:09.610Z,99997.41
2022-08-03T01:33:11.604Z,99989.41
2022-08-03T01:35:50.936Z,99989.41
2022-08-03T01:38:29.089Z,99983.19
2022-08-03T01:40:57.918Z,99987.63
2022-08-03T01:44:28.397Z,99984.97
2022-08-03T01:46:20.602Z,99984.09
2022-08-03T01:48:49.637Z,99987.69
2022-08-03T01:51:21.106Z,99986.78
2022-08-03T01:53:52.210Z,99983.28
2022-08-03T01:56:22.569Z,99986.81
2022-08-03T01:58:52.032Z,99977.91
2022-08-03T02:01:22.979Z,99980.59
2022-08-03T02:03:59.945Z,99980.63
2022-08-03T02:07:02.355Z,99979.72
2022-08-03T02:09:23.877Z,99984.16
2022-08-03T02:11:53.381Z,99982.38
2022-08-03T02:14:22.261Z,99982.38
2022-08-03T02:16:51.650Z,99979.72
2022-08-03T02:19:19.731Z,99979.75
2022-08-03T02:21:57.494Z,99986.00
2022-08-03T02:24:30.098Z,99991.31
2022-08-03T02:26:59.346Z,99987.75
2022-08-03T02:29:39.142Z,99983.31
2022-08-03T02:32:16.307Z,99985.09
2022-08-03T02:34:50.934Z,99986.84
2022-08-03T02:37:20.638Z,99983.31
2022-08-03T02:39:53.271Z,99975.31
2022-08-03T02:42:23.488Z,99972.66
2022-08-03T02:44:53.498Z,99980.66
2022-08-03T02:47:21.442Z,99977.09
2022-08-03T02:49:52.407Z,99981.53
2022-08-03T02:52:28.561Z,99975.34
2022-08-03T02:55:01.144Z,99975.34
2022-08-03T02:57:31.744Z,99975.34
2022-08-03T03:00:01.654Z,99977.13
2022-08-03T03:02:30.077Z,99977.13
2022-08-03T03:05:55.376Z,99979.78
2022-08-03T03:07:51.939Z,99979.78
2022-08-03T03:10:24.986Z,99971.75
2022-08-03T03:12:58.027Z,99977.09
2022-08-03T03:15:28.154Z,99977.09
2022-08-03T03:17:56.500Z,99977.09
2022-08-03T03:20:29.609Z,99980.66
2022-08-03T03:23:01.352Z,99978.88
2022-08-03T03:25:32.661Z,99973.53
2022-08-03T03:28:02.286Z,99978.88
2022-08-03T03:30:30.612Z,99978.00
2022-08-03T03:32:59.299Z,99982.44
2022-08-03T03:35:28.222Z,99991.34
2022-08-03T03:37:56.723Z,99986.88
2022-08-03T03:40:24.830Z,99985.09
2022-08-03T03:42:52.278Z,99985.09
2022-08-03T03:45:21.939Z,99987.75
2022-08-03T03:47:50.153Z,99991.31
2022-08-03T03:50:19.373Z,99990.41
2022-08-03T03:52:47.025Z,99992.19
2022-08-03T03:55:18.860Z,100001.06
2022-08-03T03:57:46.476Z,99998.41
2022-08-03T04:00:17.160Z,100000.16
2022-08-03T04:02:46.346Z,99993.94
2022-08-03T04:05:33.549Z,99996.63
2022-08-03T04:08:29.242Z,99999.28
2022-08-03T04:11:29.129Z,99999.28
2022-08-03T04:14:09.987Z,100001.06
2022-08-03T04:16:43.931Z,100004.63
2022-08-03T04:19:23.356Z,100004.63
2022-08-03T04:21:57.172Z,100007.28
2022-08-03T04:24:31.557Z,100009.94
2022-08-03T04:27:01.475Z,100009.94
2022-08-03T04:29:33.352Z,100008.16
2022-08-03T04:32:03.189Z,100006.38
2022-08-03T04:34:31.187Z,100007.28
2022-08-03T04:37:02.962Z,100010.81
2022-08-03T04:39:32.900Z,100009.06
2022-08-03T04:42:07.999Z,100017.97
2022-08-03T04:44:42.925Z,100018.84
2022-08-03T04:47:10.400Z,100020.66
2022-08-03T04:49:38.775Z,100026.84
2022-08-03T04:52:09.984Z,100026.00
2022-08-03T04:54:50.352Z,100029.53
2022-08-03T04:57:23.305Z,100034.00
2022-08-03T05:00:02.034Z,100027.78
2022-08-03T05:02:32.211Z,100028.66
2022-08-03T05:05:00.752Z,100030.44
2022-08-03T05:07:35.621Z,100032.19
2022-08-03T05:10:16.488Z,100040.22
2022-08-03T05:12:47.618Z,100041.13
2022-08-03T05:15:15.875Z,100039.38
2022-08-03T05:17:43.193Z,100035.78
2022-08-03T05:20:11.480Z,100039.34
2022-08-03T05:22:38.668Z,100050.03
2022-08-03T05:25:06.523Z,100048.22
2022-08-03T05:27:33.745Z,100044.69
2022-08-03T05:30:31.467Z,100044.69
2022-08-03T05:32:50.342Z,100050.03
2022-08-03T05:36:00.477Z,100050.88
2022-08-03T05:38:06.036Z,100050.00
2022-08-03T05:40:36.697Z,100050.84
2022-08-03T05:43:04.694Z,100050.81
2022-08-03T05:45:32.016Z,100051.69
2022-08-03T05:47:59.435Z,100054.34
2022-08-03T05:50:26.864Z,100059.72
2022-08-03T05:52:57.806Z,100052.59
2022-08-03T05:55:25.824Z,100049.00
2022-08-03T05:57:53.156Z,100048.06
2022-08-03T06:00:24.343Z,100058.72
2022-08-03T06:02:53.150Z,100064.91
2022-08-03T06:05:20.611Z,100061.25
2022-08-03T06:07:47.946Z,100060.31
2022-08-03T06:10:35.404Z,100063.91
2022-08-03T06:13:02.670Z,100062.94
2022-08-03T06:15:30.758Z,100063.81
2022-08-03T06:18:01.787Z,100067.31
2022-08-03T06:20:30.149Z,100065.47
2022-08-03T06:23:00.775Z,100060.03
2022-08-03T06:25:29.358Z,100067.16
2022-08-03T06:27:57.093Z,100064.44
2022-08-03T06:30:24.701Z,100075.91
2022-08-03T06:32:52.560Z,100068.66
2022-08-03T06:35:20.354Z,100072.97
2022-08-03T06:37:51.640Z,100073.78
2022-08-03T06:40:29.630Z,100080.84
2022-08-03T06:42:59.364Z,100077.19
2022-08-03T06:45:31.790Z,100077.13
2022-08-03T06:48:09.822Z,100083.31
2022-08-03T06:50:41.673Z,100078.75
2022-08-03T06:53:10.366Z,100091.94
2022-08-03T06:55:51.130Z,100078.38
2022-08-03T06:58:21.300Z,100088.13
2022-08-03T07:00:48.554Z,100088.84
2022-08-03T07:03:16.642Z,100084.34
2022-08-03T07:05:47.840Z,100086.97
2022-08-03T07:08:15.667Z,100084.25
2022-08-03T07:10:44.192Z,100095.72
2022-08-03T07:13:12.265Z,100092.94
2022-08-03T07:15:55.490Z,100095.69
2022-08-03T07:18:29.960Z,100091.16
2022-08-03T07:20:58.607Z,100090.16
2022-08-03T07:23:25.942Z,100087.44
2022-08-03T07:25:53.537Z,100086.56
2022-08-03T07:28:21.213Z,100088.16
2022-08-03T07:30:48.921Z,100095.19
2022-08-03T07:33:16.214Z,100097.00
2022-08-03T07:35:43.541Z,100095.19
2022-08-03T07:38:11.107Z,100099.63
2022-08-03T07:40:40.985Z,100100.38
2022-08-03T07:43:11.927Z,100100.25
2022-08-03T07:45:39.153Z,100101.03
2022-08-03T07:48:11.926Z,100096.38
2022-08-03T07:50:40.526Z,100105.28
2022-08-03T07:53:07.880Z,100104.25
2022-08-03T07:55:35.292Z,100106.06
2022-08-03T07:58:16.528Z,100097.91
2022-08-03T08:00:46.711Z,100105.13
2022-08-03T08:03:14.069Z,100101.47
2022-08-03T08:05:41.493Z,100099.47
2022-08-03T08:08:08.766Z,100108.31
2022-08-03T08:10:36.734Z,100097.31
2022-08-03T08:13:05.286Z,100102.69
2022-08-03T08:15:32.965Z,100103.63
2022-08-03T08:18:02.439Z,100107.88
2022-08-03T08:20:38.013Z,100104.06
2022-08-03T08:23:22.934Z,100102.16
2022-08-03T08:25:56.248Z,100100.34
2022-08-03T08:28:32.266Z,100107.53
2022-08-03T08:31:02.011Z,100105.59
2022-08-03T08:33:48.095Z,100101.97
2022-08-03T08:36:17.989Z,100104.31
2022-08-03T08:38:45.764Z,100108.69
2022-08-03T08:41:15.156Z,100103.41
2022-08-03T08:43:43.397Z,100105.06
2022-08-03T08:46:22.872Z,100107.03
2022-08-03T08:48:53.585Z,100110.31
2022-08-03T08:51:22.620Z,100112.88
2022-08-03T08:53:54.503Z,100114.94
2022-08-03T08:56:26.036Z,100109.03
2022-08-03T08:59:01.510Z,100113.94
2022-08-03T09:01:31.154Z,100109.81
2022-08-03T09:03:58.428Z,100110.50
2022-08-03T09:06:25.828Z,100109.34
2022-08-03T09:08:54.209Z,100112.78
2022-08-03T09:11:52.369Z,100108.97
2022-08-03T09:14:34.382Z,100106.94
2022-08-03T09:17:02.702Z,100107.81
2022-08-03T09:19:32.609Z,100104.09
2022-08-03T09:22:17.475Z,100104.84
2022-08-03T09:25:24.257Z,100100.34
2022-08-03T09:27:52.429Z,100108.19
2022-08-03T09:30:34.611Z,100098.19
2022-08-03T09:33:09.278Z,100096.75
2022-08-03T09:35:54.203Z,100089.63
2022-08-03T09:38:28.220Z,100093.41
2022-08-03T09:41:00.205Z,100093.88
2022-08-03T09:43:28.698Z,100099.78
2022-08-03T09:46:07.354Z,100096.69
2022-08-03T09:48:35.755Z,100099.81
2022-08-03T09:51:13.424Z,100094.09
2022-08-03T09:53:57.043Z,100097.44
2022-08-03T09:56:45.993Z,100096.78
2022-08-03T09:59:31.145Z,100082.50
2022-08-03T10:02:02.590Z,100101.84
2022-08-03T10:04:30.047Z,100090.63
2022-08-03T10:07:11.205Z,100092.56
2022-08-03T10:09:38.786Z,100099.38
2022-08-03T10:12:13.936Z,100086.38
2022-08-03T10:14:45.531Z,100085.41
2022-08-03T10:17:13.190Z,100084.19
2022-08-03T10:19:41.507Z,100080.09
2022-08-03T10:22:24.704Z,100085.81
2022-08-03T10:25:13.607Z,100082.50
2022-08-03T10:27:47.640Z,100072.72
2022-08-03T10:30:15.405Z,100067.69
2022-08-03T10:32:52.551Z,100066.31
2022-08-03T10:35:23.400Z,100056.94
2022-08-03T10:38:00.645Z,100056.91
2022-08-03T10:40:48.236Z,100061.47
2022-08-03T10:43:23.129Z,100044.44
2022-08-03T10:45:51.883Z,100045.88
2022-08-03T10:48:20.806Z,100046.16
2022-08-03T10:50:50.649Z,100038.94
2022-08-03T10:53:47.091Z,100038.69
2022-08-03T10:56:52.170Z,100036.78
2022-08-03T10:59:46.035Z,100040.50
2022-08-03T11:02:17.948Z,100029.94
2022-08-03T11:04:45.257Z,100027.75
2022-08-03T11:07:25.792Z,100035.78
2022-08-03T11:09:56.536Z,100025.44
2022-08-03T11:12:33.017Z,100018.88
2022-08-03T11:15:08.567Z,100011.78
2022-08-03T11:17:46.136Z,100015.47
2022-08-03T11:20:54.829Z,100011.06
2022-08-03T11:24:04.859Z,100008.63
2022-08-03T11:26:34.662Z,100006.00
2022-08-03T11:29:29.402Z,99998.03
2022-08-03T11:31:57.286Z,100001.19
2022-08-03T11:34:24.961Z,100005.16
2022-08-03T11:37:28.728Z,100000.81
2022-08-03T11:39:57.424Z,99995.09
2022-08-03T11:42:24.607Z,99995.47
2022-08-03T11:45:00.627Z,99997.88
2022-08-03T11:47:30.119Z,99997.16
2022-08-03T11:50:02.003Z,99993.16
2022-08-03T11:52:38.058Z,99996.19
2022-08-03T11:55:11.962Z,99986.22
2022-08-03T11:58:58.357Z,99987.66
2022-08-03T12:00:33.008Z,99982.06
2022-08-03T12:03:05.589Z,99979.19
2022-08-03T12:05:52.269Z,99985.31
2022-08-03T12:08:32.661Z,99984.00
2022-08-03T12:11:07.230Z,99979.28
2022-08-03T12:14:26.989Z,99981.19
2022-08-03T12:16:32.647Z,99987.91
2022-08-03T12:19:06.734Z,99978.53
2022-08-03T12:21:34.333Z,99985.72
2022-08-03T12:24:04.847Z,99972.84
2022-08-03T12:26:58.474Z,99967.44
2022-08-03T12:29:27.059Z,99967.44
2022-08-03T12:31:55.956Z,99965.44
2022-08-03T12:34:23.700Z,99957.09
2022-08-03T12:36:56.261Z,99956.00
2022-08-03T12:39:27.484Z,99959.91
2022-08-03T12:41:56.825Z,99957.03
2022-08-03T12:44:36.229Z,99950.53
2022-08-03T12:47:06.586Z,99951.06
2022-08-03T12:49:53.083Z,99947.91
2022-08-03T12:52:23.051Z,99943.53
2022-08-03T12:54:59.836Z,99937.81
2022-08-03T12:57:43.596Z,99946.00
2022-08-03T13:00:28.744Z,99940.50
2022-08-03T13:05:54.916Z,99939.81
2022-08-03T13:08:25.374Z,99935.78
2022-08-03T13:10:52.788Z,99937.75
2022-08-03T13:13:39.625Z,99935.44
2022-08-03T13:16:06.863Z,99927.22
2022-08-03T13:18:34.210Z,99933.50
2022-08-03T13:21:02.278Z,99933.31
2022-08-03T13:23:29.910Z,99936.53
2022-08-03T13:25:57.202Z,99928.88
2022-08-03T13:28:24.441Z,99929.34
2022-08-03T13:30:51.720Z,99926.53
2022-08-03T13:33:19.154Z,99919.38
2022-08-03T13:35:46.361Z,99910.44
2022-08-03T13:38:15.325Z,99911.56
2022-08-03T13:40:44.754Z,99909.81
2022-08-03T13:43:13.391Z,99911.38
2022-08-03T13:45:44.634Z,99908.28
2022-08-03T13:48:14.837Z,99903.34
2022-08-03T13:51:11.991Z,99901.38
2022-08-03T13:53:52.409Z,99897.31
2022-08-03T13:56:21.202Z,99895.47
2022-08-03T13:58:48.403Z,99890.13
2022-08-03T14:01:16.310Z,99887.81
2022-08-03T14:03:43.673Z,99885.41
2022-08-03T14:06:11.006Z,99879.50
2022-08-03T14:08:38.307Z,99874.72
2022-08-03T14:11:05.621Z,99870.50
2022-08-03T14:13:32.926Z,99872.31
2022-08-03T14:16:01.793Z,99862.78
2022-08-03T14:18:33.490Z,99866.25
2022-08-03T14:21:07.138Z,99854.66
2022-08-03T14:23:37.954Z,99852.66
2022-08-03T14:26:09.537Z,99845.63
2022-08-03T14:28:36.953Z,99847.00
2022-08-03T14:31:08.491Z,99842.81
2022-08-03T14:33:52.888Z,99841.09
2022-08-03T14:36:20.184Z,99835.50
2022-08-03T14:38:47.870Z,99828.97
2022-08-03T14:41:20.164Z,99828.56
2022-08-03T14:44:00.549Z,99822.53
2022-08-03T14:46:30.750Z,99822.16
2022-08-03T14:49:02.621Z,99828.03
2022-08-03T14:51:51.426Z,99815.44
2022-08-03T14:54:22.628Z,99818.84
2022-08-03T14:56:49.942Z,99814.66
2022-08-03T14:59:17.125Z,99810.56
2022-08-03T15:02:06.262Z,99805.94
2022-08-03T15:04:31.730Z,99807.94
2022-08-03T15:06:58.892Z,99805.13
2022-08-03T15:09:26.185Z,99806.94
2022-08-03T15:11:53.712Z,99791.47
2022-08-03T15:14:28.266Z,99795.56
2022-08-03T15:17:01.126Z,99783.22
2022-08-03T15:20:03.301Z,99793.34
2022-08-03T15:22:20.481Z,99788.41
2022-08-03T15:24:52.262Z,99781.78
2022-08-03T15:27:19.779Z,99771.75
2022-08-03T15:30:05.653Z,99770.66
2022-08-03T15:32:34.860Z,99774.97
2022-08-03T15:35:02.303Z,99775.41
2022-08-03T15:37:29.541Z,99771.91
2022-08-03T15:39:59.622Z,99767.00
2022-08-03T15:42:33.232Z,99766.09
2022-08-03T15:45:00.725Z,99755.97
2022-08-03T15:47:28.090Z,99761.00
2022-08-03T15:49:55.463Z,99752.41
2022-08-03T15:52:22.758Z,99752.66
2022-08-03T15:54:50.225Z,99753.63
2022-08-03T15:57:17.701Z,99746.88
2022-08-03T15:59:45.123Z,99747.38
2022-08-03T16:02:12.554Z,99742.69
2022-08-03T16:04:39.823Z,99741.03
2022-08-03T16:07:07.078Z,99728.81
2022-08-03T16:09:42.069Z,99734.72
2022-08-03T16:12:14.466Z,99740.56
2022-08-03T16:14:52.941Z,99731.53
2022-08-03T16:17:22.222Z,99729.25
2022-08-03T16:19:52.223Z,99730.47
2022-08-03T16:22:23.781Z,99733.28
2022-08-03T16:24:54.226Z,99731.81
2022-08-03T16:28:00.489Z,99733.00
2022-08-03T16:30:18.437Z,99735.81
2022-08-03T16:32:46.115Z,99733.59
2022-08-03T16:35:19.710Z,99731.59
2022-08-03T16:37:50.713Z,99729.63
2022-08-03T16:40:25.093Z,99730.84
2022-08-03T16:42:52.313Z,99737.78
2022-08-03T16:45:19.604Z,99730.06
2022-08-03T16:47:46.923Z,99722.81
2022-08-03T16:50:19.893Z,99726.59
2022-08-03T16:52:48.430Z,99720.56
2022-08-03T16:55:18.410Z,99720.97
2022-08-03T16:58:05.532Z,99727.44
2022-08-03T17:00:41.620Z,99726.59
2022-08-03T17:03:16.395Z,99717.91
2022-08-03T17:05:50.016Z,99727.41
2022-08-03T17:08:18.900Z,99727.69
2022-08-03T17:10:54.016Z,99730.81
2022-08-03T17:13:22.721Z,99733.50
2022-08-03T17:16:00.687Z,99734.50
2022-08-03T17:18:35.210Z,99727.78
2022-08-03T17:21:06.647Z,99720.84
2022-08-03T17:23:58.432Z,99725.94
2022-08-03T17:26:30.317Z,99720.56
2022-08-03T17:29:12.888Z,99723.34
2022-08-03T17:31:49.596Z,99720.13
2022-08-03T17:34:19.398Z,99716.56
2022-08-03T17:37:05.492Z,99728.06
2022-08-03T17:39:57.632Z,99728.88
2022-08-03T17:42:30.494Z,99731.31
2022-08-03T17:45:02.173Z,99726.88
2022-08-03T17:47:41.973Z,99732.56
2022-08-03T17:50:24.410Z,99729.78
2022-08-03T17:53:24.374Z,99734.47
2022-08-03T17:56:40.749Z,99739.56
2022-08-03T17:59:50.652Z,99733.88
2022-08-03T18:03:07.008Z,99732.78
2022-08-03T18:06:10.642Z,99743.41
2022-08-03T18:08:32.521Z,99734.72
2022-08-03T18:11:09.670Z,99740.94
2022-08-03T18:14:40.411Z,99748.69
2022-08-03T18:20:32.360Z,99751.06
2022-08-03T18:23:06.944Z,99757.81
2022-08-03T18:25:43.070Z,99763.50
2022-08-03T18:28:18.648Z,99766.69
2022-08-03T18:30:53.123Z,99763.41
2022-08-03T18:34:18.819Z,99761.97
2022-08-03T18:36:17.663Z,99764.66
2022-08-03T18:38:51.816Z,99765.78
2022-08-03T18:41:33.672Z,99763.09
2022-08-03T18:44:08.427Z,99767.78
2022-08-03T18:47:27.174Z,99761.72
2022-08-03T18:50:36.731Z,99758.75
2022-08-03T18:54:02.790Z,99758.63
2022-08-03T18:56:44.303Z,99765.91
2022-08-03T18:59:29.947Z,99766.53
2022-08-03T19:02:34.828Z,99770.41
2022-08-03T19:05:11.037Z,99768.66
2022-08-03T19:07:42.265Z,99768.78
2022-08-03T19:10:31.155Z,99776.44
2022-08-03T19:13:20.110Z,99777.47
2022-08-03T19:16:02.528Z,99783.34
2022-08-03T19:18:32.783Z,99788.25
2022-08-03T19:21:03.364Z,99785.19
2022-08-03T19:23:47.338Z,99796.50
2022-08-03T19:26:30.172Z,99801.38
2022-08-03T19:28:59.203Z,99798.28
2022-08-03T19:31:31.106Z,99807.41
2022-08-03T19:34:03.964Z,99809.16
2022-08-03T19:36:39.537Z,99803.41
2022-08-03T19:39:12.721Z,99809.16
2022-08-03T19:41:47.234Z,99807.19
2022-08-03T19:44:34.241Z,99809.84
2022-08-03T19:47:11.771Z,99810.22
2022-08-03T19:49:57.735Z,99811.28
2022-08-03T19:52:38.228Z,99821.56
2022-08-03T19:55:12.513Z,99819.88
2022-08-03T19:57:46.944Z,99821.44
2022-08-03T20:00:20.005Z,99819.63
2022-08-03T20:02:53.704Z,99823.38
2022-08-03T20:05:21.102Z,99825.44
2022-08-03T20:07:51.013Z,99821.97
2022-08-03T20:10:20.079Z,99824.84
2022-08-03T20:12:49.530Z,99826.31
2022-08-03T20:15:18.080Z,99835.53
2022-08-03T20:17:54.570Z,99840.31
2022-08-03T20:20:34.866Z,99836.03
2022-08-03T20:23:18.875Z,99832.72
2022-08-03T20:25:58.810Z,99839.94
2022-08-03T20:28:50.301Z,99836.41
2022-08-03T20:31:23.973Z,99847.25
2022-08-03T20:34:00.610Z,99844.63
2022-08-03T20:36:28.290Z,99847.06
2022-08-03T20:38:58.177Z,99850.63
2022-08-03T20:41:25.994Z,99848.06
2022-08-03T20:43:53.365Z,99849.94
2022-08-03T20:46:29.063Z,99844.75
2022-08-03T20:48:58.877Z,99856.81
2022-08-03T20:51:50.183Z,99854.88
2022-08-03T20:54:29.201Z,99853.97
2022-08-03T20:57:00.528Z,99853.22
2022-08-03T20:59:46.975Z,99853.38
2022-08-03T21:02:30.231Z,99847.44
2022-08-03T21:05:03.526Z,99856.50
2022-08-03T21:08:06.282Z,99854.00
2022-08-03T21:10:38.011Z,99851.44
2022-08-03T21:12:57.498Z,99749.94
2022-08-03T21:13:24.176Z,99851.78
2022-08-03T21:16:12.178Z,99860.13
2022-08-03T21:18:52.178Z,99858.28
2022-08-03T21:21:23.245Z,99851.06
2022-08-03T21:23:55.181Z,99858.31
2022-08-03T21:26:27.144Z,99860.28
2022-08-03T21:28:56.979Z,99865.91
2022-08-03T21:31:26.791Z,99866.94
2022-08-03T21:34:03.894Z,99868.72
2022-08-03T21:36:37.640Z,99867.06
2022-08-03T21:39:09.449Z,99875.13
2022-08-03T21:41:40.252Z,99875.94
2022-08-03T21:44:08.681Z,99883.97
2022-08-03T21:46:44.268Z,99881.28
2022-08-03T21:50:07.080Z,99889.41
2022-08-03T21:52:07.215Z,99886.72
2022-08-03T21:54:42.462Z,99883.97
2022-08-03T21:57:19.349Z,99880.38
2022-08-03T22:00:01.929Z,99886.53
2022-08-03T22:02:32.017Z,99892.81
2022-08-03T22:05:00.014Z,99884.75
2022-08-03T22:07:29.235Z,99890.97
2022-08-03T22:10:01.965Z,99896.41
2022-08-03T22:12:31.676Z,99900.09
2022-08-03T22:15:03.154Z,99891.16
2022-08-03T22:17:54.554Z,99898.44
2022-08-03T22:20:25.424Z,99898.56
2022-08-03T22:22:57.018Z,99895.06
2022-08-03T22:25:34.881Z,99911.22
2022-08-03T22:28:24.696Z,99911.28
2022-08-03T22:30:52.404Z,99911.28
2022-08-03T22:33:20.090Z,99914.88
2022-08-03T22:35:51.593Z,99918.41
2022-08-03T22:38:19.280Z,99928.28
2022-08-03T22:40:50.794Z,99930.09
2022-08-03T22:43:24.104Z,99923.81
2022-08-03T22:46:09.132Z,99926.50
2022-08-03T22:48:41.421Z,99929.25
2022-08-03T22:51:09.948Z,99931.09
2022-08-03T22:53:39.213Z,99924.06
2022-08-03T22:56:08.747Z,99929.53
2022-08-03T22:58:36.132Z,99930.56
2022-08-03T23:01:11.887Z,99933.28
2022-08-03T23:03:59.943Z,99935.97
2022-08-03T23:06:42.572Z,99937.03
2022-08-03T23:09:14.134Z,99937.91
2022-08-03T23:11:46.125Z,99937.09
2022-08-03T23:14:20.585Z,99940.66
2022-08-03T23:16:50.590Z,99946.00
2022-08-03T23:19:24.983Z,99936.22
2022-08-03T23:22:02.860Z,99945.19
2022-08-03T23:24:36.183Z,99944.31
2022-08-03T23:27:07.319Z,99939.88
2022-08-03T23:29:38.045Z,99940.03
2022-08-03T23:32:07.116Z,99941.84
2022-08-03T23:34:53.688Z,99942.78
2022-08-03T23:37:21.763Z,99949.09
2022-08-03T23:39:49.577Z,99938.47
2022-08-03T23:42:20.045Z,99951.09
2022-08-03T23:44:53.660Z,99943.13
2022-08-03T23:47:21.174Z,99944.94
2022-08-03T23:49:49.857Z,99938.63
2022-08-03T23:52:52.655Z,99936.75
2022-08-03T23:56:24.340Z,99935.00
2022-08-03T23:59:38.674Z,99934.09
